Terminal Aerodrome Forecast
Issued by NWS

Home | Current Version | Previous Version | Text Only | Print | Product List | Glossary On
Versions: 1 2 3 4 5 6 7 8 9 10 11 12 13 14 15 16 17 18 19 20 21 22 23 24 25 26
021
FTUS41 KBGM 220520
TAFELM
TAF
KELM 220520Z 2206/2306 VRB03KT 1/4SM FG VV002
     FM221200 00000KT 2SM BR OVC015
     FM221600 00000KT 6SM BR OVC025
     FM230200 10004KT 1/4SM FG VV002=

USA.gov is the U.S. government's official web portal to all federal, state and local government web resources and services.